Accueil
METAR-TAF:

METAR-TAF

Aéroports :

Locarno, Suisse

latitude: 46-09-55N, longitude: 8-52-40E, altitude: 198 m

Observation

Le bulletin a été fait il y a 35 minutes, à 18:50 UTC
Vent calme
Température 14°C
Humidité 88%
Pression 1020 hPa
Visibilité 10 km ou plus

METAR: LSZL 191850Z AUTO 00000KT 9999NDV NCD 14/12 Q1020 RMK

Heure: 21:25 (19:25 UTC)

Prévision

Le bulletin a été fait il y a 2 heures et 0 minutes, à 17:25 UTC
Prévision valable du 19 à 18 UTC au 20 à 03 UTC
Vent 3 kt de direction variable
Visibilité 10 km ou plus
pas de nuages en-dessous de 1500 mètres et pas de cumulonimbus.
Probabilité 40%
du 19 à 20 UTC au 20 à 03 UTC
Visibilité: 4500 m
brume

TAF: LSZL 191725Z 1918/2003 VRB03KT CAVOK PROB40 1920/2003 4500 BR

Observations et prévisions météorologiques de plus de 4000 aéroports (messages METAR et TAF).

Les stations disponibles sont représentées par des disques jaunes et rouges sur la carte.

Passer la souris dessus pour voir le nom de la station.

Cliquer dessus pour voir les observations et prévisions météorologiques.

Pour changer de carte: cliquez sur les boutons verts avec une croix noire pour zoomer, sur le bouton vert avec un tiret pour effectuer un zoom arrière, ou sur les flèches vertes pour les cartes adjacentes.


METAR-TAF: